createdAt,value
2018-06-08T00:01:13.938Z,20.00
2018-06-08T00:03:43.286Z,19.98
2018-06-08T00:06:12.614Z,19.97
2018-06-08T00:08:41.961Z,19.91
2018-06-08T00:11:11.448Z,19.89
2018-06-08T00:13:40.810Z,19.77
2018-06-08T00:16:10.183Z,19.71
2018-06-08T00:18:39.505Z,19.72
2018-06-08T00:21:08.872Z,19.77
2018-06-08T00:23:38.306Z,19.54
2018-06-08T00:26:07.371Z,19.65
2018-06-08T00:28:36.713Z,19.70
2018-06-08T00:31:06.131Z,19.73
2018-06-08T00:33:35.527Z,19.76
2018-06-08T00:36:04.868Z,19.72
2018-06-08T00:38:34.201Z,19.72
2018-06-08T00:41:03.612Z,19.64
2018-06-08T00:43:32.941Z,19.65
2018-06-08T00:46:02.282Z,19.51
2018-06-08T00:48:31.617Z,19.51
2018-06-08T00:51:00.944Z,19.37
2018-06-08T00:53:30.696Z,19.34
2018-06-08T00:56:00.050Z,19.31
2018-06-08T00:58:29.395Z,19.35
2018-06-08T01:00:58.763Z,19.42
2018-06-08T01:03:28.114Z,19.40
2018-06-08T01:05:57.450Z,19.37
2018-06-08T01:08:26.790Z,19.36
2018-06-08T01:10:56.159Z,19.40
2018-06-08T01:13:25.573Z,19.43
2018-06-08T01:15:54.953Z,19.38
2018-06-08T01:18:24.302Z,19.34
2018-06-08T01:20:53.664Z,19.34
2018-06-08T01:23:23.016Z,19.30
2018-06-08T01:25:52.431Z,19.36
2018-06-08T01:28:21.764Z,19.36
2018-06-08T01:30:51.125Z,19.28
2018-06-08T01:33:20.486Z,19.27
2018-06-08T01:35:49.846Z,19.27
2018-06-08T01:38:19.218Z,19.30
2018-06-08T01:40:48.643Z,19.25
2018-06-08T01:43:17.980Z,19.31
2018-06-08T01:45:47.345Z,19.33
2018-06-08T01:48:16.682Z,19.38
2018-06-08T01:50:46.027Z,19.37
2018-06-08T01:53:15.399Z,19.36
2018-06-08T01:55:44.733Z,19.34
2018-06-08T01:58:14.141Z,19.26
2018-06-08T02:00:43.461Z,19.18
2018-06-08T02:03:12.837Z,19.18
2018-06-08T02:05:42.200Z,19.26
2018-06-08T02:08:11.540Z,19.17
2018-06-08T02:10:40.884Z,19.20
2018-06-08T02:13:10.262Z,19.25
2018-06-08T02:15:39.599Z,19.35
2018-06-08T02:18:08.947Z,19.39
2018-06-08T02:20:38.289Z,19.38
2018-06-08T02:23:07.665Z,19.29
2018-06-08T02:25:37.012Z,19.30
2018-06-08T02:28:06.352Z,19.25
2018-06-08T02:30:35.742Z,18.98
2018-06-08T02:33:05.076Z,18.71
2018-06-08T02:35:34.438Z,18.85
2018-06-08T02:38:03.796Z,18.94
2018-06-08T02:40:33.159Z,18.93
2018-06-08T02:43:02.520Z,19.08
2018-06-08T02:45:31.883Z,19.02
2018-06-08T02:48:01.346Z,19.09
2018-06-08T02:50:30.704Z,19.13
2018-06-08T02:53:00.054Z,19.24
2018-06-08T02:55:29.429Z,19.22
2018-06-08T02:57:58.756Z,19.30
2018-06-08T03:00:28.103Z,19.25
2018-06-08T03:02:57.513Z,19.27
2018-06-08T03:05:26.988Z,19.28
2018-06-08T03:07:56.375Z,19.37
2018-06-08T03:10:25.715Z,19.39
2018-06-08T03:12:55.049Z,19.32
2018-06-08T03:15:24.403Z,19.39
2018-06-08T03:17:53.763Z,19.42
2018-06-08T03:20:23.157Z,19.31
2018-06-08T03:22:52.538Z,19.18
2018-06-08T03:25:22.813Z,19.17
2018-06-08T03:27:52.178Z,19.16
2018-06-08T03:33:45.393Z,19.24
2018-06-08T03:36:14.765Z,19.36
2018-06-08T03:38:44.123Z,19.38
2018-06-08T03:41:13.482Z,19.38
2018-06-08T03:43:43.065Z,19.29
2018-06-08T03:46:12.403Z,19.41
2018-06-08T03:48:41.754Z,19.43
2018-06-08T03:51:11.090Z,19.49
2018-06-08T03:53:40.477Z,19.43
2018-06-08T03:56:09.787Z,19.44
2018-06-08T03:58:39.125Z,19.40
2018-06-08T04:01:08.486Z,19.18
2018-06-08T04:03:37.872Z,19.34
2018-06-08T04:06:07.205Z,19.40
2018-06-08T04:08:36.536Z,19.40
2018-06-08T04:11:05.896Z,19.40
2018-06-08T04:13:35.393Z,19.44
2018-06-08T04:16:05.215Z,19.13
2018-06-08T04:18:34.912Z,18.87
2018-06-08T04:21:04.532Z,19.01
2018-06-08T04:23:34.299Z,19.10
2018-06-08T04:26:03.954Z,19.26
2018-06-08T04:28:33.650Z,19.31
2018-06-08T04:31:03.316Z,19.39
2018-06-08T04:33:33.048Z,19.42
2018-06-08T04:36:02.733Z,19.45
2018-06-08T04:38:32.422Z,19.41
2018-06-08T04:41:02.096Z,19.52
2018-06-08T04:43:31.803Z,19.58
2018-06-08T04:46:01.467Z,19.60
2018-06-08T04:48:31.240Z,19.68
2018-06-08T04:51:00.898Z,19.72
2018-06-08T04:53:30.248Z,19.79
2018-06-08T04:56:05.946Z,19.87
2018-06-08T04:58:35.689Z,19.90
2018-06-08T05:01:05.315Z,19.88
2018-06-08T05:03:34.987Z,19.91
2018-06-08T05:06:04.717Z,19.95
2018-06-08T05:08:35.383Z,20.00
2018-06-08T05:11:05.026Z,20.00
2018-06-08T05:13:34.799Z,20.01
2018-06-08T05:16:04.471Z,20.07
2018-06-08T05:18:34.144Z,20.16
2018-06-08T05:21:03.826Z,20.28
2018-06-08T05:23:33.534Z,20.36
2018-06-08T05:26:03.252Z,20.43
2018-06-08T05:28:32.918Z,20.48
2018-06-08T05:31:02.597Z,20.57
2018-06-08T05:33:32.240Z,20.71
2018-06-08T05:36:01.818Z,20.72
2018-06-08T05:38:31.542Z,20.75
2018-06-08T05:41:01.302Z,20.38
2018-06-08T05:43:30.929Z,20.58
2018-06-08T05:46:00.282Z,20.49
2018-06-08T05:48:29.676Z,20.67
2018-06-08T05:50:58.971Z,20.80
2018-06-08T05:53:28.309Z,20.91
2018-06-08T05:55:57.649Z,21.02
2018-06-08T05:58:26.983Z,21.16
2018-06-08T06:00:56.316Z,21.29
2018-06-08T06:03:25.659Z,21.20
2018-06-08T06:05:54.980Z,21.12
2018-06-08T06:08:24.339Z,21.25
2018-06-08T06:10:53.660Z,21.23
2018-06-08T06:13:22.976Z,20.84
2018-06-08T06:23:47.330Z,20.74
2018-06-08T06:26:16.865Z,21.23
2018-06-08T06:28:46.188Z,21.37
2018-06-08T06:31:15.535Z,21.41
2018-06-08T06:33:44.960Z,21.18
2018-06-08T06:36:14.269Z,21.30
2018-06-08T06:38:43.592Z,21.38
2018-06-08T06:41:12.936Z,21.49
2018-06-08T06:43:42.282Z,21.75
2018-06-08T06:46:11.651Z,21.86
2018-06-08T06:48:40.980Z,21.99
2018-06-08T06:51:10.337Z,21.95
2018-06-08T06:53:39.734Z,21.89
2018-06-08T06:56:09.076Z,21.83
2018-06-08T06:58:38.430Z,21.86
2018-06-08T07:01:07.827Z,22.10
2018-06-08T07:03:37.148Z,22.13
2018-06-08T07:06:06.585Z,22.34
2018-06-08T07:08:35.958Z,22.46
2018-06-08T07:11:05.305Z,22.66
2018-06-08T07:13:34.656Z,22.89
2018-06-08T07:16:04.020Z,23.01
2018-06-08T07:18:33.381Z,23.07
2018-06-08T07:21:02.723Z,23.14
2018-06-08T07:23:32.056Z,23.26
2018-06-08T07:26:01.825Z,23.32
2018-06-08T07:28:31.207Z,23.44
2018-06-08T07:31:00.526Z,23.40
2018-06-08T07:33:29.858Z,23.50
2018-06-08T07:35:59.220Z,23.50
2018-06-08T07:38:28.563Z,23.64
2018-06-08T07:40:57.968Z,23.44
2018-06-08T07:43:27.272Z,23.68
2018-06-08T07:45:56.621Z,23.70
2018-06-08T07:48:25.944Z,23.71
2018-06-08T07:50:55.288Z,23.83
2018-06-08T07:53:24.632Z,23.84
2018-06-08T07:55:54.010Z,23.67
2018-06-08T07:58:23.382Z,23.74
2018-06-08T08:00:52.707Z,23.77
2018-06-08T08:03:22.044Z,23.85
2018-06-08T08:05:51.414Z,24.01
2018-06-08T08:08:20.768Z,24.09
2018-06-08T08:10:50.135Z,24.11
2018-06-08T08:13:19.501Z,24.19
2018-06-08T08:15:48.852Z,24.26
2018-06-08T08:18:18.180Z,24.19
2018-06-08T08:20:47.532Z,24.26
2018-06-08T08:23:16.864Z,24.30
2018-06-08T08:25:46.245Z,24.19
2018-06-08T08:28:15.616Z,24.19
2018-06-08T08:30:44.961Z,24.16
2018-06-08T08:33:14.296Z,24.06
2018-06-08T08:35:43.664Z,24.42
2018-06-08T08:38:12.983Z,24.69
2018-06-08T08:40:42.320Z,24.76
2018-06-08T08:43:11.690Z,24.68
2018-06-08T08:45:41.041Z,24.57
2018-06-08T08:48:10.361Z,24.50
2018-06-08T08:50:39.725Z,24.90
2018-06-08T08:53:09.068Z,25.02
2018-06-08T08:55:38.380Z,25.44
2018-06-08T08:58:07.737Z,25.52
2018-06-08T09:00:37.071Z,25.44
2018-06-08T09:03:06.417Z,25.14
2018-06-08T09:05:35.791Z,25.41
2018-06-08T09:08:05.389Z,25.42
2018-06-08T09:10:34.878Z,25.32
2018-06-08T09:13:04.251Z,25.09
2018-06-08T09:15:33.315Z,25.27
2018-06-08T09:18:02.660Z,25.37
2018-06-08T09:20:32.016Z,25.73
2018-06-08T09:23:01.367Z,25.92
2018-06-08T09:25:30.695Z,25.90
2018-06-08T09:28:00.045Z,25.94
2018-06-08T09:30:29.403Z,25.98
2018-06-08T09:32:58.723Z,26.41
2018-06-08T09:35:28.077Z,26.21
2018-06-08T09:37:57.420Z,26.51
2018-06-08T09:40:26.784Z,26.53
2018-06-08T09:42:56.096Z,26.88
2018-06-08T09:45:25.449Z,27.06
2018-06-08T09:47:54.764Z,27.29
2018-06-08T09:50:23.811Z,27.56
2018-06-08T09:52:53.159Z,27.77
2018-06-08T09:55:22.212Z,27.84
2018-06-08T09:57:51.540Z,27.95
2018-06-08T10:00:26.178Z,27.77
2018-06-08T10:02:55.520Z,28.10
2018-06-08T10:05:24.849Z,28.21
2018-06-08T10:07:54.188Z,28.40
2018-06-08T10:10:23.520Z,28.72
2018-06-08T10:12:52.856Z,28.83
2018-06-08T10:15:22.776Z,28.94
2018-06-08T10:17:52.116Z,28.85
2018-06-08T10:20:21.453Z,28.82
2018-06-08T10:22:50.785Z,28.96
2018-06-08T10:25:20.101Z,29.14
2018-06-08T10:27:49.448Z,28.71
2018-06-08T10:30:18.772Z,29.15
2018-06-08T10:32:48.104Z,29.45
2018-06-08T10:35:17.233Z,29.43
2018-06-08T10:37:46.527Z,28.84
2018-06-08T10:40:15.866Z,28.58
2018-06-08T10:42:45.197Z,28.95
2018-06-08T10:45:14.537Z,29.24
2018-06-08T10:47:43.885Z,29.48
2018-06-08T10:50:13.208Z,29.27
2018-06-08T10:52:42.537Z,29.45
2018-06-08T10:55:11.881Z,29.33
2018-06-08T10:57:41.217Z,28.99
2018-06-08T11:00:10.560Z,28.94
2018-06-08T11:02:39.904Z,29.24
2018-06-08T11:05:09.253Z,29.38
2018-06-08T11:07:38.582Z,29.20
2018-06-08T11:10:07.961Z,29.30
2018-06-08T11:12:37.351Z,29.31
2018-06-08T11:15:06.737Z,28.58
2018-06-08T11:17:36.090Z,28.95
2018-06-08T11:20:05.477Z,29.16
2018-06-08T11:22:34.830Z,29.31
2018-06-08T11:25:04.268Z,28.81
2018-06-08T11:27:33.626Z,29.04
2018-06-08T11:30:02.994Z,28.53
2018-06-08T11:32:32.341Z,28.54
2018-06-08T11:35:01.415Z,29.06
2018-06-08T11:37:30.869Z,29.24
2018-06-08T11:40:00.204Z,29.40
2018-06-08T11:42:29.525Z,29.54
2018-06-08T11:44:58.957Z,29.97
2018-06-08T11:47:28.295Z,30.30
2018-06-08T11:49:57.762Z,30.75
2018-06-08T11:52:27.098Z,30.75
2018-06-08T11:54:56.416Z,30.95
2018-06-08T11:57:25.752Z,30.66
2018-06-08T11:59:55.096Z,31.03
2018-06-08T12:02:24.466Z,30.89
2018-06-08T12:04:53.792Z,29.97
2018-06-08T12:07:23.129Z,30.44
2018-06-08T12:09:52.455Z,30.42
2018-06-08T12:12:21.789Z,30.89
2018-06-08T12:14:51.144Z,31.07
2018-06-08T12:17:20.512Z,31.44
2018-06-08T12:19:49.888Z,31.49
2018-06-08T12:22:19.277Z,31.91
2018-06-08T12:24:48.602Z,31.58
2018-06-08T12:27:17.944Z,30.82
2018-06-08T12:29:47.308Z,31.20
2018-06-08T12:32:16.656Z,30.96
2018-06-08T12:34:45.988Z,30.92
2018-06-08T12:37:15.309Z,31.30
2018-06-08T12:39:44.627Z,31.35
2018-06-08T12:42:13.960Z,31.40
2018-06-08T12:44:43.294Z,31.58
2018-06-08T12:47:12.650Z,31.83
2018-06-08T12:49:42.052Z,31.71
2018-06-08T12:52:11.379Z,31.93
2018-06-08T12:54:40.715Z,32.13
2018-06-08T12:57:10.095Z,32.00
2018-06-08T12:59:39.420Z,31.75
2018-06-08T13:02:08.765Z,31.85
2018-06-08T13:04:38.115Z,31.47
2018-06-08T13:07:07.430Z,31.32
2018-06-08T13:09:36.826Z,31.43
2018-06-08T13:12:06.226Z,31.73
2018-06-08T13:14:35.560Z,31.40
2018-06-08T13:17:04.903Z,32.22
2018-06-08T13:19:34.259Z,32.62
2018-06-08T13:22:03.578Z,33.03
2018-06-08T13:24:32.896Z,32.91
2018-06-08T13:27:02.249Z,32.88
2018-06-08T13:29:31.608Z,33.26
2018-06-08T13:32:00.968Z,33.79
2018-06-08T13:34:30.305Z,33.65
2018-06-08T13:36:59.646Z,33.85
2018-06-08T13:39:28.983Z,33.77
2018-06-08T13:41:58.322Z,33.64
2018-06-08T13:44:27.372Z,33.07
2018-06-08T13:46:56.693Z,32.55
2018-06-08T13:49:26.089Z,32.19
2018-06-08T13:51:55.500Z,31.75
2018-06-08T13:54:24.827Z,31.51
2018-06-08T13:56:54.970Z,30.95
2018-06-08T13:59:24.367Z,30.53
2018-06-08T14:03:51.618Z,30.04
2018-06-08T14:06:20.968Z,29.45
2018-06-08T14:08:50.319Z,29.19
2018-06-08T14:11:19.687Z,28.83
2018-06-08T14:13:49.105Z,28.50
2018-06-08T14:16:18.435Z,27.92
2018-06-08T14:18:47.777Z,27.25
2018-06-08T14:21:17.097Z,26.35
2018-06-08T14:23:46.443Z,25.41
2018-06-08T14:26:15.808Z,24.51
2018-06-08T14:28:45.151Z,24.09
2018-06-08T14:31:14.484Z,23.76
2018-06-08T14:33:43.838Z,23.61
2018-06-08T14:36:13.191Z,23.35
2018-06-08T14:38:42.516Z,22.92
2018-06-08T14:41:11.867Z,22.89
2018-06-08T14:43:41.205Z,22.95
2018-06-08T14:46:10.583Z,22.83
2018-06-08T14:48:39.909Z,22.36
2018-06-08T14:51:09.284Z,21.99
2018-06-08T14:53:38.688Z,21.80
2018-06-08T14:56:08.028Z,21.80
2018-06-08T14:58:37.355Z,21.81
2018-06-08T15:01:06.708Z,21.87
2018-06-08T15:03:36.028Z,21.91
2018-06-08T15:06:05.484Z,22.03
2018-06-08T15:08:34.855Z,22.18
2018-06-08T15:11:04.285Z,22.22
2018-06-08T15:13:33.817Z,22.25
2018-06-08T15:16:03.159Z,22.03
2018-06-08T15:18:33.671Z,22.06
2018-06-08T15:21:03.474Z,22.09
2018-06-08T15:23:35.105Z,22.09
2018-06-08T15:26:05.219Z,22.05
2018-06-08T15:31:03.319Z,22.37
2018-06-08T15:33:33.173Z,22.42
2018-06-08T15:36:03.113Z,22.49
2018-06-08T15:38:32.926Z,22.53
2018-06-08T15:41:03.241Z,22.50
2018-06-08T15:43:33.470Z,22.56
2018-06-08T15:46:03.609Z,22.63
2018-06-08T15:48:33.739Z,22.58
2018-06-08T15:51:04.042Z,22.27
2018-06-08T15:53:34.066Z,22.21
2018-06-08T15:56:04.401Z,22.12
2018-06-08T15:58:33.975Z,22.14
2018-06-08T16:01:04.316Z,22.36
2018-06-08T16:03:35.221Z,22.46
2018-06-08T16:06:05.445Z,22.59
2018-06-08T16:08:35.433Z,22.48
2018-06-08T16:11:05.314Z,22.52
2018-06-08T16:13:35.242Z,22.58
2018-06-08T16:16:05.462Z,22.58
2018-06-08T16:18:35.957Z,22.47
2018-06-08T16:21:05.887Z,22.35
2018-06-08T16:26:03.937Z,22.25
2018-06-08T16:28:34.489Z,22.49
2018-06-08T16:31:04.401Z,22.60
2018-06-08T16:33:34.274Z,22.35
2018-06-08T16:36:03.785Z,22.28
2018-06-08T16:38:33.549Z,21.98
2018-06-08T16:41:04.253Z,22.33
2018-06-08T16:43:34.083Z,22.46
2018-06-08T16:46:04.680Z,22.47
2018-06-08T16:48:34.545Z,22.53
2018-06-08T16:51:04.302Z,22.56
2018-06-08T16:53:34.109Z,22.61
2018-06-08T16:56:04.006Z,22.86
2018-06-08T16:58:33.505Z,23.14
2018-06-08T17:01:03.383Z,23.90
2018-06-08T17:03:32.925Z,24.29
2018-06-08T17:06:03.351Z,24.35
2018-06-08T17:08:33.452Z,24.06
2018-06-08T17:11:03.281Z,24.06
2018-06-08T17:13:33.763Z,24.09
2018-06-08T17:16:03.568Z,24.10
2018-06-08T17:18:33.795Z,24.23
2018-06-08T17:21:03.598Z,24.28
2018-06-08T17:23:33.393Z,24.23
2018-06-08T17:26:02.888Z,24.11
2018-06-08T17:28:32.645Z,24.00
2018-06-08T17:31:03.092Z,24.14
2018-06-08T17:33:32.628Z,24.50
2018-06-08T17:36:02.857Z,24.56
2018-06-08T17:38:32.641Z,24.60
2018-06-08T17:41:02.799Z,24.87
2018-06-08T17:43:32.620Z,25.21
2018-06-08T17:46:02.466Z,25.36
2018-06-08T17:48:32.777Z,25.65
2018-06-08T17:51:02.904Z,25.74
2018-06-08T17:53:33.169Z,26.49
2018-06-08T17:56:03.167Z,26.58
2018-06-08T17:58:33.056Z,26.28
2018-06-08T18:01:03.376Z,26.37
2018-06-08T18:03:33.705Z,26.05
2018-06-08T18:06:04.583Z,25.35
2018-06-08T18:08:34.397Z,24.95
2018-06-08T18:11:03.926Z,24.66
2018-06-08T18:13:34.180Z,24.56
2018-06-08T18:16:04.271Z,24.76
2018-06-08T18:18:34.644Z,24.79
2018-06-08T18:21:05.677Z,24.89
2018-06-08T18:23:35.193Z,24.66
2018-06-08T18:26:05.209Z,24.13
2018-06-08T18:28:35.072Z,23.73
2018-06-08T18:31:04.825Z,23.96
2018-06-08T18:33:35.266Z,24.02
2018-06-08T18:36:05.346Z,23.94
2018-06-08T18:38:35.095Z,23.90
2018-06-08T18:41:05.991Z,23.81
2018-06-08T18:43:36.927Z,23.85
2018-06-08T18:46:06.830Z,23.81
2018-06-08T18:48:36.370Z,23.83
2018-06-08T18:51:06.271Z,23.69
2018-06-08T18:53:35.849Z,23.60
2018-06-08T18:56:05.853Z,23.60
2018-06-08T18:58:36.136Z,23.24
2018-06-08T19:01:06.594Z,23.02
2018-06-08T19:03:36.130Z,22.80
2018-06-08T19:06:07.127Z,22.49
2018-06-08T19:08:37.425Z,22.67
2018-06-08T19:11:07.301Z,22.77
2018-06-08T19:13:37.230Z,22.84
2018-06-08T19:16:07.504Z,22.81
2018-06-08T19:18:37.857Z,22.76
2018-06-08T19:21:07.453Z,22.64
2018-06-08T19:23:37.052Z,22.58
2018-06-08T19:26:06.644Z,22.53
2018-06-08T19:28:37.048Z,22.39
2018-06-08T19:31:07.270Z,22.23
2018-06-08T19:33:37.285Z,22.10
2018-06-08T19:36:06.850Z,21.99
2018-06-08T19:38:37.229Z,21.87
2018-06-08T19:41:07.470Z,21.73
2018-06-08T19:43:37.904Z,21.56
2018-06-08T19:46:11.320Z,21.46
2018-06-08T19:48:40.933Z,21.37
2018-06-08T19:51:10.708Z,21.38
2018-06-08T19:53:40.630Z,21.40
2018-06-08T19:56:10.933Z,21.42
2018-06-08T19:58:41.487Z,21.44
2018-06-08T20:01:11.038Z,21.46
2018-06-08T20:03:41.488Z,21.43
2018-06-08T20:06:11.072Z,21.44
2018-06-08T20:08:41.239Z,21.46
2018-06-08T20:11:11.975Z,21.55
2018-06-08T20:13:45.353Z,21.54
2018-06-08T20:16:15.386Z,21.47
2018-06-08T20:18:45.480Z,21.50
2018-06-08T20:21:15.591Z,21.44
2018-06-08T20:23:46.568Z,21.48
2018-06-08T20:26:17.329Z,21.50
2018-06-08T20:28:47.626Z,21.48
2018-06-08T20:31:17.503Z,21.26
2018-06-08T20:33:47.891Z,21.16
2018-06-08T20:36:18.439Z,20.94
2018-06-08T20:38:48.269Z,21.04
2018-06-08T20:41:18.574Z,21.07
2018-06-08T20:43:49.763Z,21.14
2018-06-08T20:46:19.806Z,21.14
2018-06-08T20:48:49.739Z,21.09
2018-06-08T20:51:20.054Z,21.05
2018-06-08T20:53:50.429Z,21.00
2018-06-08T20:56:20.623Z,20.99
2018-06-08T20:58:50.442Z,20.60
2018-06-08T21:01:20.792Z,20.44
2018-06-08T21:03:50.405Z,20.35
2018-06-08T21:06:20.497Z,20.36
2018-06-08T21:08:50.488Z,20.49
2018-06-08T21:11:20.394Z,20.41
2018-06-08T21:13:50.296Z,20.41
2018-06-08T21:16:20.710Z,20.38
2018-06-08T21:18:51.046Z,20.39
2018-06-08T21:21:21.465Z,20.21
2018-06-08T21:23:52.948Z,20.22
2018-06-08T21:26:22.741Z,20.25
2018-06-08T21:28:52.525Z,20.34
2018-06-08T21:31:22.632Z,20.46
2018-06-08T21:33:56.561Z,20.58
2018-06-08T21:36:26.216Z,20.61
2018-06-08T21:38:56.273Z,20.68
2018-06-08T21:41:26.761Z,20.78
2018-06-08T21:43:56.913Z,20.73
2018-06-08T21:46:26.529Z,20.78
2018-06-08T21:48:56.401Z,20.74
2018-06-08T21:51:26.357Z,20.73
2018-06-08T21:53:56.245Z,20.65
2018-06-08T21:56:26.097Z,20.49
2018-06-08T21:58:55.721Z,20.31
2018-06-08T22:01:26.244Z,20.34
2018-06-08T22:03:55.834Z,20.28
2018-06-08T22:06:26.056Z,20.19
2018-06-08T22:08:56.610Z,20.15
2018-06-08T22:11:26.591Z,20.19
2018-06-08T22:13:56.641Z,20.17
2018-06-08T22:16:27.538Z,20.15
2018-06-08T22:18:57.444Z,20.18
2018-06-08T22:21:27.778Z,20.08
2018-06-08T22:23:57.321Z,19.91
2018-06-08T22:26:27.435Z,19.83
2018-06-08T22:28:56.980Z,19.92
2018-06-08T22:31:26.696Z,19.98
2018-06-08T22:33:56.202Z,20.05
2018-06-08T22:36:26.471Z,20.10
2018-06-08T22:38:56.504Z,20.12
2018-06-08T22:41:26.981Z,19.96
2018-06-08T22:43:57.029Z,20.07
2018-06-08T22:46:27.514Z,20.11
2018-06-08T22:48:57.387Z,20.15
2018-06-08T22:51:27.928Z,19.98
2018-06-08T22:53:57.786Z,19.95
2018-06-08T22:56:27.987Z,20.04
2018-06-08T22:58:57.871Z,20.03
2018-06-08T23:01:27.644Z,20.03
2018-06-08T23:03:57.287Z,20.01
2018-06-08T23:06:27.094Z,20.03
2018-06-08T23:08:56.640Z,20.08
2018-06-08T23:11:26.528Z,20.06
2018-06-08T23:13:56.413Z,20.03
2018-06-08T23:16:26.333Z,20.08
2018-06-08T23:18:56.713Z,20.03
2018-06-08T23:21:26.421Z,20.00
2018-06-08T23:23:56.337Z,19.99
2018-06-08T23:26:26.584Z,19.96
2018-06-08T23:28:56.861Z,19.85
2018-06-08T23:31:27.349Z,19.51
2018-06-08T23:33:57.260Z,19.43
2018-06-08T23:36:27.134Z,19.55
2018-06-08T23:38:57.325Z,19.60
2018-06-08T23:41:26.843Z,19.45
2018-06-08T23:43:56.982Z,19.47
2018-06-08T23:46:27.647Z,19.44
2018-06-08T23:48:57.465Z,19.28
2018-06-08T23:51:28.217Z,19.17
2018-06-08T23:53:58.034Z,19.22
2018-06-08T23:56:27.825Z,19.23
2018-06-08T23:58:57.358Z,19.20
